Rechercher aéroport 
image banner adimage banner adimage banner ad
image banner ad

KBUR - Bob Hope

Situé à Burbank, United States

ICAO - BUR, IATA - BUR

Données fournies par Airmate  

Information générale

Coordonnées: N34°12'2" W118°21'31"
Élévation : 778 feet MSL.
Variation magnétique : 12° East
Voir autres Aéroports à California

Données opérationnelles

Special qualification required
Heure actuelle UTC:
Heure actuelle locale:
Météo
METAR: KBUR 262253Z 18007KT 10SM CLR 24/16 A2992 RMK AO2 SLP120 T02390161 $
TAF: KBUR 261740Z 2618/2718 35004KT P6SM VCSH SCT100 BKN120 FM261900 17008KT P6SM VCSH OVC100 FM270300 14006KT P6SM BKN100 FM271000 VRB03KT P6SM BKN100
Voir NOTAMs / SUP AIP / TFR affectant cet aéroport [VIEW]
Fréquences de communication: [VIEW]

Pistes:

Identifiant RWYQFULongueur (ft)Largeur (ft)SurfaceLDA (ft)
0891°5802150OTHER5801
26271°5802150OTHER5801
15167°6886150OTHER5976
33347°6886150OTHER6535

Coordonnées de l'aéroport

Adresse: Burbank United States

Autres services d'aviation

Écoles de pilotage

Orbic Air, Llc

Orbic Air, Llc
fly@orbicair.com+1(818)561-4838

Vue satellite de KBUR